Time;durP1;ratioP1;P1;durP2;ratioP2;P2;SDS_P1;SDS_P2;PMS_P1;PMS_P2;Temp;Humidity;BMP_temperature;BMP_pressure;BME280_temperature;BME280_humidity;BME280_pressure;Samples;Min_cycle;Max_cycle;Signal;HPM_P1;HPM_P2
2023/08/14 00:02:01;;;;;;;3.33;2.60;;;22.70;99.90;;;;;;7392042;19;20135;-73
2023/08/14 00:04:27;;;;;;;4.28;2.92;;;22.80;99.90;;;;;;7390921;19;20528;-72
2023/08/14 00:06:54;;;;;;;3.47;2.78;;;22.80;99.90;;;;;;7388358;19;20858;-72
2023/08/14 00:09:20;;;;;;;3.83;2.70;;;22.90;99.90;;;;;;7392713;19;20142;-73
2023/08/14 00:11:46;;;;;;;3.20;2.78;;;22.80;99.90;;;;;;7393838;19;20145;-72
2023/08/14 00:14:12;;;;;;;4.00;3.03;;;22.70;99.90;;;;;;7392064;19;20147;-72
2023/08/14 00:16:37;;;;;;;4.05;2.92;;;22.70;99.90;;;;;;7392985;19;20135;-72
2023/08/14 00:19:03;;;;;;;6.28;2.80;;;22.60;99.90;;;;;;7391505;19;20126;-72
2023/08/14 00:21:29;;;;;;;3.58;2.65;;;22.60;99.90;;;;;;7394961;19;20134;-73
2023/08/14 00:23:55;;;;;;;4.82;2.97;;;22.60;99.90;;;;;;7389388;19;20138;-73
2023/08/14 00:26:21;;;;;;;3.53;2.90;;;22.80;99.90;;;;;;7394526;19;20198;-72
2023/08/14 00:28:46;;;;;;;2.72;2.50;;;22.80;99.90;;;;;;7390666;19;20167;-73
2023/08/14 00:31:12;;;;;;;3.55;2.67;;;22.80;99.90;;;;;;7393546;19;20142;-73
2023/08/14 00:33:38;;;;;;;6.10;3.13;;;22.70;99.90;;;;;;7387137;19;20593;-73
2023/08/14 00:36:05;;;;;;;4.20;2.70;;;22.70;99.90;;;;;;7391548;19;20214;-73
2023/08/14 00:38:31;;;;;;;3.50;2.92;;;22.70;99.90;;;;;;7391409;19;20201;-72
2023/08/14 00:40:57;;;;;;;4.43;3.20;;;22.70;99.90;;;;;;7391692;19;20173;-73
2023/08/14 00:43:23;;;;;;;4.70;2.63;;;22.80;99.90;;;;;;7390847;19;20142;-73
2023/08/14 00:45:52;;;;;;;4.25;2.80;;;22.70;99.90;;;;;;7392255;19;20255;-72
2023/08/14 00:48:18;;;;;;;4.55;3.10;;;22.70;99.90;;;;;;7391273;19;20154;-70
2023/08/14 00:50:44;;;;;;;3.60;3.00;;;22.80;99.90;;;;;;7389062;19;20791;-73
2023/08/14 00:53:12;;;;;;;3.55;2.58;;;22.80;99.90;;;;;;7394144;19;20131;-71
2023/08/14 00:55:38;;;;;;;3.28;2.85;;;22.70;99.90;;;;;;7390588;19;20138;-72
2023/08/14 00:58:05;;;;;;;4.03;3.03;;;22.50;99.90;;;;;;7390995;19;20142;-72
2023/08/14 01:00:34;;;;;;;3.83;2.88;;;22.60;99.90;;;;;;7392429;19;20152;-71
2023/08/14 01:03:01;;;;;;;3.50;2.63;;;22.70;99.90;;;;;;7392688;19;20135;-71
2023/08/14 01:05:27;;;;;;;3.15;2.60;;;22.60;99.90;;;;;;7385734;19;20183;-72
2023/08/14 01:07:53;;;;;;;3.28;2.90;;;22.70;99.90;;;;;;7392871;19;20146;-72
2023/08/14 01:10:19;;;;;;;3.75;3.25;;;22.80;99.90;;;;;;7390523;19;20142;-72
2023/08/14 01:13:06;;;;;;;2.55;2.35;;;22.90;99.90;;;;;;7391061;19;20150;-71
2023/08/14 01:15:57;;;;;;;4.38;2.72;;;22.90;99.90;;;;;;7391815;19;20138;-72
2023/08/14 01:18:26;;;;;;;4.25;3.17;;;22.90;99.90;;;;;;7390387;19;20147;-71
2023/08/14 01:21:04;;;;;;;5.40;3.30;;;23.00;99.90;;;;;;7392424;19;20483;-73
2023/08/14 01:23:42;;;;;;;3.75;3.03;;;23.00;99.90;;;;;;7391544;19;20131;-73
2023/08/14 01:26:08;;;;;;;4.53;3.40;;;22.90;99.90;;;;;;7390815;19;20138;-73
2023/08/14 01:28:34;;;;;;;4.03;3.20;;;22.70;99.90;;;;;;7392736;19;20182;-72
2023/08/14 01:31:00;;;;;;;4.22;3.05;;;22.70;99.90;;;;;;7389131;19;20135;-72
2023/08/14 01:33:26;;;;;;;4.50;3.00;;;22.80;99.90;;;;;;7392450;19;20169;-71
2023/08/14 01:35:59;;;;;;;4.75;3.13;;;22.80;99.90;;;;;;7390085;19;20570;-73
2023/08/14 01:38:49;;;;;;;3.95;2.88;;;22.80;99.90;;;;;;7389251;19;20142;-72
2023/08/14 01:41:36;;;;;;;6.20;3.05;;;22.70;99.90;;;;;;7389706;19;20170;-73
2023/08/14 01:44:07;;;;;;;3.58;2.70;;;22.60;99.90;;;;;;7387156;19;20147;-72
2023/08/14 01:46:34;;;;;;;3.58;3.20;;;22.60;99.90;;;;;;7389327;19;20173;-71
2023/08/14 01:49:02;;;;;;;5.90;3.20;;;22.80;99.90;;;;;;7388328;19;20131;-73
2023/08/14 01:51:29;;;;;;;3.55;3.10;;;22.90;99.90;;;;;;7392383;19;20160;-72
2023/08/14 01:53:55;;;;;;;3.20;2.90;;;22.90;99.90;;;;;;7388025;19;20142;-72
2023/08/14 01:56:20;;;;;;;5.10;3.40;;;23.00;99.90;;;;;;7389782;19;20214;-73
2023/08/14 01:58:46;;;;;;;4.72;3.50;;;22.80;99.90;;;;;;7386732;19;20127;-73
2023/08/14 02:01:12;;;;;;;5.15;3.88;;;22.70;99.90;;;;;;7389677;19;20130;-73
2023/08/14 02:03:38;;;;;;;4.43;3.65;;;22.70;99.90;;;;;;7380568;19;20157;-73
2023/08/14 02:06:03;;;;;;;4.15;3.03;;;22.70;99.90;;;;;;7389797;19;20151;-73
2023/08/14 02:08:29;;;;;;;6.28;3.67;;;22.70;99.90;;;;;;7389950;19;20170;-74
2023/08/14 02:10:55;;;;;;;3.75;3.33;;;22.80;99.90;;;;;;7386678;19;20145;-74
2023/08/14 02:13:21;;;;;;;5.47;3.80;;;22.70;99.90;;;;;;7389847;19;20209;-73
2023/08/14 02:15:47;;;;;;;4.80;3.70;;;22.70;99.90;;;;;;7388989;19;20154;-73
2023/08/14 02:18:13;;;;;;;5.32;3.88;;;22.40;99.90;;;;;;7389825;19;20131;-73
2023/08/14 02:20:49;;;;;;;4.13;3.15;;;22.40;99.90;;;;;;7389519;19;20600;-74
2023/08/14 02:23:15;;;;;;;5.82;3.40;;;22.50;99.90;;;;;;7388892;19;20225;-73
2023/08/14 02:25:44;;;;;;;3.47;2.80;;;22.30;99.90;;;;;;7387782;19;20142;-73
2023/08/14 02:28:10;;;;;;;2.80;2.30;;;22.30;99.90;;;;;;7387380;19;20146;-73
2023/08/14 02:30:37;;;;;;;3.55;2.20;;;22.30;99.90;;;;;;7387406;19;20583;-71
2023/08/14 02:33:03;;;;;;;3.35;1.90;;;22.40;99.90;;;;;;7389035;19;20127;-72
2023/08/14 02:35:29;;;;;;;3.47;2.35;;;22.30;99.90;;;;;;7390211;19;20135;-72
2023/08/14 02:37:55;;;;;;;2.80;2.00;;;22.30;99.90;;;;;;7390227;19;20141;-72
2023/08/14 02:40:21;;;;;;;6.03;2.85;;;22.30;99.90;;;;;;7390067;19;20131;-72
2023/08/14 02:42:46;;;;;;;3.45;2.30;;;22.40;99.90;;;;;;7389636;19;20450;-72
2023/08/14 02:45:12;;;;;;;4.10;2.50;;;22.60;99.90;;;;;;7385470;19;20138;-72
2023/08/14 02:47:38;;;;;;;4.05;2.63;;;22.60;99.90;;;;;;7386746;19;20138;-73
2023/08/14 02:50:05;;;;;;;2.88;2.28;;;22.40;99.90;;;;;;7388282;19;20141;-72
2023/08/14 02:52:30;;;;;;;3.13;2.53;;;22.40;99.90;;;;;;7387851;19;20147;-72
2023/08/14 02:54:56;;;;;;;5.03;2.20;;;22.30;99.90;;;;;;7388459;19;20134;-71
2023/08/14 02:57:22;;;;;;;3.08;2.10;;;22.30;99.90;;;;;;7392624;19;20138;-73
2023/08/14 02:59:48;;;;;;;2.95;2.42;;;22.20;99.90;;;;;;7393620;19;20178;-70
2023/08/14 03:02:13;;;;;;;3.17;2.38;;;22.30;99.90;;;;;;7394045;19;20497;-71
2023/08/14 03:04:39;;;;;;;3.90;2.50;;;22.20;99.90;;;;;;7393810;19;20173;-71
2023/08/14 03:07:07;;;;;;;3.85;2.53;;;22.10;99.90;;;;;;7393903;19;20150;-71
2023/08/14 03:09:33;;;;;;;4.15;2.40;;;22.10;99.90;;;;;;7392819;19;20157;-72
2023/08/14 03:11:58;;;;;;;2.90;2.50;;;22.00;99.90;;;;;;7396085;19;20134;-72
2023/08/14 03:14:24;;;;;;;5.82;2.03;;;22.00;99.90;;;;;;7394094;19;20831;-72
2023/08/14 03:16:50;;;;;;;2.85;2.50;;;22.10;99.90;;;;;;7395589;19;20238;-73
2023/08/14 03:19:15;;;;;;;3.08;2.38;;;22.10;99.90;;;;;;7392622;19;20138;-71
2023/08/14 03:21:41;;;;;;;2.42;1.90;;;22.00;99.90;;;;;;7395310;19;20115;-72
2023/08/14 03:24:07;;;;;;;4.63;2.30;;;21.80;99.90;;;;;;7393299;19;20195;-72
2023/08/14 03:26:33;;;;;;;3.13;2.40;;;21.70;99.90;;;;;;7393603;19;20527;-72
2023/08/14 03:28:58;;;;;;;2.13;1.90;;;21.70;99.90;;;;;;7392739;19;20139;-72
2023/08/14 03:31:24;;;;;;;4.20;2.17;;;21.70;99.90;;;;;;7392836;19;20591;-72
2023/08/14 03:33:50;;;;;;;2.63;2.25;;;21.80;99.90;;;;;;7394034;19;20166;-73
2023/08/14 03:36:16;;;;;;;5.28;2.10;;;21.90;99.90;;;;;;7393336;19;20130;-73
2023/08/14 03:38:41;;;;;;;2.70;2.28;;;22.00;99.90;;;;;;7395075;19;20150;-72
2023/08/14 03:41:07;;;;;;;2.17;1.98;;;22.00;99.90;;;;;;7395030;19;20138;-73
2023/08/14 03:43:33;;;;;;;2.58;1.88;;;22.00;99.90;;;;;;7393895;19;20130;-73
2023/08/14 03:45:58;;;;;;;3.78;2.22;;;21.80;99.90;;;;;;7395137;19;20205;-72
2023/08/14 03:48:24;;;;;;;3.95;2.50;;;21.60;99.90;;;;;;7393741;19;20594;-70
2023/08/14 03:50:50;;;;;;;5.43;2.83;;;21.60;99.90;;;;;;7394203;19;20787;-73
2023/08/14 03:53:15;;;;;;;3.25;2.40;;;21.80;99.90;;;;;;7391724;19;20146;-72
2023/08/14 03:55:41;;;;;;;2.30;1.95;;;21.60;99.90;;;;;;7392390;19;20131;-74
2023/08/14 03:58:07;;;;;;;5.22;2.38;;;21.70;99.90;;;;;;7395713;19;20137;-72
2023/08/14 04:00:34;;;;;;;4.68;2.30;;;21.70;99.90;;;;;;7393255;19;20229;-74
2023/08/14 04:02:59;;;;;;;3.70;2.10;;;21.60;99.90;;;;;;7393049;19;20242;-73
2023/08/14 04:05:25;;;;;;;3.70;2.10;;;21.70;99.90;;;;;;7388027;19;20154;-70
2023/08/14 04:07:51;;;;;;;5.38;2.65;;;21.60;99.90;;;;;;7391909;19;20146;-75
2023/08/14 04:10:16;;;;;;;6.35;2.38;;;21.70;99.90;;;;;;7394023;19;20139;-76
2023/08/14 04:12:42;;;;;;;5.18;2.70;;;21.50;99.90;;;;;;7393167;19;20149;-76
2023/08/14 04:15:16;;;;;;;4.18;2.70;;;21.50;99.90;;;;;;7391297;19;20213;-76
2023/08/14 04:17:42;;;;;;;4.45;2.10;;;21.20;99.90;;;;;;7393922;19;20206;-75
2023/08/14 04:20:12;;;;;;;4.03;2.60;;;21.20;99.90;;;;;;7390519;19;20138;-81
2023/08/14 04:22:38;;;;;;;2.92;2.47;;;21.30;99.90;;;;;;7390824;19;20154;-79
2023/08/14 04:25:04;;;;;;;5.22;3.40;;;21.50;99.90;;;;;;7391828;19;20571;-79
2023/08/14 04:27:30;;;;;;;6.20;3.42;;;21.30;99.90;;;;;;7394258;19;20138;-80
2023/08/14 04:29:56;;;;;;;6.60;3.78;;;21.20;99.90;;;;;;7391852;19;20173;-80
2023/08/14 04:32:22;;;;;;;7.13;3.08;;;21.20;99.90;;;;;;7393151;19;20147;-80
2023/08/14 04:34:48;;;;;;;4.57;3.08;;;21.00;99.90;;;;;;7391562;19;20140;-79
2023/08/14 04:37:16;;;;;;;6.80;3.00;;;21.00;99.90;;;;;;7393635;19;20123;-79
2023/08/14 04:39:42;;;;;;;3.10;2.30;;;21.00;99.90;;;;;;7393383;19;20135;-79
2023/08/14 04:42:07;;;;;;;2.58;2.35;;;21.10;99.90;;;;;;7392855;19;20172;-80
2023/08/14 04:44:33;;;;;;;3.97;2.88;;;21.20;99.90;;;;;;7390893;19;20151;-78
2023/08/14 04:46:59;;;;;;;5.20;2.80;;;21.40;99.90;;;;;;7393554;19;20134;-80
2023/08/14 04:49:24;;;;;;;3.72;2.35;;;21.60;99.90;;;;;;7391154;19;20135;-79
2023/08/14 04:51:50;;;;;;;4.82;2.75;;;21.50;99.90;;;;;;7391509;19;20201;-79
2023/08/14 04:54:16;;;;;;;3.42;2.67;;;21.50;99.90;;;;;;7389385;19;20131;-78
2023/08/14 04:56:41;;;;;;;3.25;2.58;;;21.50;99.90;;;;;;7390779;19;20135;-78
2023/08/14 04:59:07;;;;;;;3.17;2.45;;;21.40;99.90;;;;;;7389611;19;20135;-77
2023/08/14 05:01:33;;;;;;;5.05;2.60;;;21.40;99.90;;;;;;7389798;19;20145;-80
2023/08/14 05:03:59;;;;;;;3.47;2.50;;;21.50;99.90;;;;;;7392069;19;20146;-81
2023/08/14 05:06:24;;;;;;;3.38;2.13;;;21.40;99.90;;;;;;7391186;19;20234;-80
2023/08/14 05:08:50;;;;;;;2.70;2.30;;;21.20;99.90;;;;;;7390103;19;20151;-80
2023/08/14 05:11:16;;;;;;;3.38;2.70;;;21.00;99.90;;;;;;7390165;19;20151;-80
2023/08/14 05:13:44;;;;;;;2.90;2.60;;;21.20;99.90;;;;;;7391787;19;20172;-78
2023/08/14 05:16:10;;;;;;;3.45;2.13;;;21.30;99.90;;;;;;7390187;19;20142;-80
2023/08/14 05:18:36;;;;;;;3.80;2.67;;;21.30;99.90;;;;;;7390990;19;20165;-80
2023/08/14 05:21:02;;;;;;;3.85;2.83;;;21.30;99.90;;;;;;7389934;19;20134;-81
2023/08/14 05:23:28;;;;;;;2.90;2.70;;;21.30;99.90;;;;;;7390775;19;20622;-77
2023/08/14 05:25:53;;;;;;;2.72;2.35;;;21.50;99.90;;;;;;7388829;19;20139;-80
2023/08/14 05:28:19;;;;;;;2.78;2.13;;;21.60;99.90;;;;;;7391204;19;20135;-81
2023/08/14 05:30:45;;;;;;;3.80;2.22;;;21.90;99.90;;;;;;7388758;19;20134;-81
2023/08/14 05:33:11;;;;;;;3.20;2.40;;;22.00;99.90;;;;;;7390072;19;20151;-81
2023/08/14 05:35:37;;;;;;;3.55;1.95;;;22.00;99.90;;;;;;7386718;19;20166;-81
2023/08/14 05:38:03;;;;;;;2.25;1.92;;;22.00;99.90;;;;;;7391075;19;20130;-81
2023/08/14 05:40:29;;;;;;;3.85;2.20;;;22.10;99.90;;;;;;7387121;19;20165;-81
2023/08/14 05:43:08;;;;;;;3.50;2.20;;;22.20;99.90;;;;;;7386039;19;20527;-81
2023/08/14 05:45:43;;;;;;;3.78;3.13;;;22.30;99.90;;;;;;7387256;19;20130;-79
2023/08/14 05:48:10;;;;;;;8.00;5.85;;;22.20;99.90;;;;;;7390047;19;20226;-81
2023/08/14 05:50:36;;;;;;;5.40;3.75;;;22.30;99.90;;;;;;7388036;19;20139;-78
2023/08/14 05:53:04;;;;;;;3.63;2.70;;;22.20;99.90;;;;;;7389211;19;20151;-79
2023/08/14 05:55:35;;;;;;;4.38;2.22;;;22.10;99.90;;;;;;7381593;19;20222;-79
2023/08/14 05:58:02;;;;;;;3.30;2.05;;;22.10;99.90;;;;;;7386980;19;20142;-81
2023/08/14 06:00:29;;;;;;;3.35;2.00;;;22.20;99.90;;;;;;7388432;19;20155;-80
2023/08/14 06:02:55;;;;;;;2.78;2.20;;;22.10;99.90;;;;;;7389360;19;20165;-82
2023/08/14 06:05:21;;;;;;;4.82;2.63;;;22.10;99.90;;;;;;7385494;19;20134;-77
2023/08/14 06:07:50;;;;;;;7.35;3.30;;;22.10;99.90;;;;;;7391776;19;20140;-81
2023/08/14 06:10:15;;;;;;;5.50;2.88;;;22.10;99.90;;;;;;7393773;19;20134;-81
2023/08/14 06:12:42;;;;;;;5.97;2.75;;;22.10;99.90;;;;;;7393447;19;20488;-82
2023/08/14 06:15:08;;;;;;;3.67;2.60;;;22.20;99.90;;;;;;7390375;19;20209;-82
2023/08/14 06:17:33;;;;;;;3.25;2.10;;;22.30;99.90;;;;;;7390635;19;20150;-80
2023/08/14 06:20:00;;;;;;;3.28;2.40;;;22.30;99.90;;;;;;7390584;19;20467;-80
2023/08/14 06:22:26;;;;;;;4.13;2.72;;;22.40;99.90;;;;;;7390190;19;20186;-80
2023/08/14 06:24:52;;;;;;;4.03;2.35;;;22.50;99.90;;;;;;7386415;19;20130;-79
2023/08/14 06:27:18;;;;;;;4.25;2.35;;;22.40;99.90;;;;;;7391033;19;20142;-80
2023/08/14 06:29:44;;;;;;;3.40;2.38;;;22.40;99.90;;;;;;7388496;19;20147;-82
2023/08/14 06:32:10;;;;;;;5.03;2.70;;;22.40;99.90;;;;;;7394701;19;20127;-78
2023/08/14 06:34:36;;;;;;;7.90;6.47;;;22.50;99.90;;;;;;7395248;19;20666;-82
2023/08/14 06:37:01;;;;;;;7.72;5.93;;;22.50;99.90;;;;;;7395955;19;20130;-83
2023/08/14 06:39:27;;;;;;;3.28;2.97;;;22.60;99.90;;;;;;7393946;19;20146;-82
2023/08/14 06:41:53;;;;;;;3.40;2.70;;;22.60;99.90;;;;;;7395673;19;20130;-80
2023/08/14 06:44:19;;;;;;;3.13;2.78;;;22.60;99.90;;;;;;7394618;19;20146;-82
2023/08/14 06:46:46;;;;;;;2.72;2.42;;;23.10;99.90;;;;;;7393294;19;20587;-80
2023/08/14 06:49:11;;;;;;;3.55;2.60;;;24.10;99.90;;;;;;7392507;19;20205;-83
2023/08/14 06:51:37;;;;;;;4.78;2.50;;;25.60;99.90;;;;;;7392991;19;20146;-78
2023/08/14 06:54:04;;;;;;;2.78;2.30;;;26.60;99.90;;;;;;7393122;19;20130;-82
2023/08/14 06:56:30;;;;;;;2.97;2.63;;;27.70;99.90;;;;;;7395427;19;20153;-77
2023/08/14 06:58:56;;;;;;;3.88;2.50;;;28.40;99.90;;;;;;7392770;19;20123;-78
2023/08/14 07:01:22;;;;;;;3.67;2.08;;;28.60;99.90;;;;;;7395261;19;20138;-80
2023/08/14 07:03:48;;;;;;;3.25;2.70;;;29.00;99.90;;;;;;7387960;19;20196;-79
2023/08/14 07:06:14;;;;;;;3.42;2.17;;;29.20;99.90;;;;;;7391538;19;20143;-76
2023/08/14 07:08:40;;;;;;;3.85;2.40;;;29.20;99.90;;;;;;7395282;19;20628;-79
2023/08/14 07:11:05;;;;;;;3.95;2.40;;;29.60;99.90;;;;;;7395346;19;20157;-79
2023/08/14 07:13:31;;;;;;;2.72;2.08;;;29.80;99.90;;;;;;7394790;19;20168;-79
2023/08/14 07:15:57;;;;;;;5.10;2.15;;;29.90;99.90;;;;;;7396248;19;20161;-79
2023/08/14 07:18:23;;;;;;;6.85;2.25;;;30.00;99.90;;;;;;7392979;19;20142;-79
2023/08/14 07:20:48;;;;;;;4.93;2.40;;;30.00;99.90;;;;;;7392454;19;20149;-80
2023/08/14 07:23:19;;;;;;;5.15;2.70;;;29.80;99.90;;;;;;7393346;19;20134;-78
2023/08/14 07:25:45;;;;;;;7.65;2.90;;;29.40;99.90;;;;;;7391043;19;20138;-78
2023/08/14 07:28:11;;;;;;;4.68;2.45;;;29.00;99.90;;;;;;7393637;19;20138;-78
2023/08/14 07:30:38;;;;;;;5.75;2.83;;;28.60;99.90;;;;;;7392379;19;20202;-77
2023/08/14 07:33:05;;;;;;;5.28;2.90;;;28.30;99.90;;;;;;7392296;19;20147;-77
2023/08/14 07:35:31;;;;;;;4.60;2.33;;;28.30;99.90;;;;;;7393133;19;20155;-76
2023/08/14 07:37:58;;;;;;;4.90;3.00;;;28.40;99.90;;;;;;7393470;19;20161;-76
2023/08/14 07:40:24;;;;;;;8.07;3.13;;;28.80;99.90;;;;;;7393855;19;20181;-76
2023/08/14 07:42:50;;;;;;;7.63;3.13;;;28.80;99.90;;;;;;7390621;19;20617;-77
2023/08/14 07:45:16;;;;;;;3.55;2.78;;;29.40;99.90;;;;;;7393235;19;20139;-77
2023/08/14 07:47:42;;;;;;;5.95;2.70;;;30.40;99.90;;;;;;7391836;19;20214;-76
2023/08/14 07:50:09;;;;;;;3.83;2.10;;;30.90;99.90;;;;;;7392190;19;20161;-79
2023/08/14 07:52:34;;;;;;;4.75;2.67;;;31.10;99.90;;;;;;7395501;19;20161;-77
2023/08/14 07:55:01;;;;;;;3.88;2.42;;;31.10;99.90;;;;;;7393457;19;20469;-80
2023/08/14 07:57:27;;;;;;;5.00;2.33;;;31.10;99.90;;;;;;7393470;19;20150;-78
2023/08/14 07:59:54;;;;;;;4.75;2.30;;;31.10;99.90;;;;;;7393888;19;20171;-77
2023/08/14 08:02:20;;;;;;;5.25;3.30;;;31.00;99.90;;;;;;7393025;19;20190;-78
2023/08/14 08:04:46;;;;;;;4.88;3.65;;;30.70;99.90;;;;;;7390666;19;20158;-79
2023/08/14 08:07:13;;;;;;;8.60;5.88;;;30.70;99.90;;;;;;7393044;19;20588;-79
2023/08/14 08:09:39;;;;;;;21.77;7.30;;;30.70;99.90;;;;;;7392228;19;20139;-78
2023/08/14 08:12:06;;;;;;;5.57;2.33;;;30.70;99.90;;;;;;7392214;19;20632;-77
2023/08/14 08:14:33;;;;;;;14.57;6.05;;;30.50;99.90;;;;;;7393796;19;20591;-77
2023/08/14 08:17:01;;;;;;;14.48;5.75;;;30.40;99.90;;;;;;7390928;19;20143;-78
2023/08/14 08:19:27;;;;;;;4.13;2.67;;;30.00;99.90;;;;;;7393961;19;20146;-77
2023/08/14 08:21:53;;;;;;;14.05;3.20;;;29.70;99.90;;;;;;7391011;19;20135;-77
2023/08/14 08:24:20;;;;;;;9.27;3.67;;;29.20;99.90;;;;;;7390977;19;20145;-77
2023/08/14 08:26:46;;;;;;;74.82;14.82;;;29.20;99.90;;;;;;7389310;19;20150;-74
2023/08/14 08:29:15;;;;;;;8.25;2.95;;;29.00;99.90;;;;;;7390621;19;20146;-75
2023/08/14 08:31:41;;;;;;;13.30;4.45;;;29.00;99.90;;;;;;7389572;19;20138;-77
2023/08/14 08:34:06;;;;;;;7.05;3.22;;;29.20;99.90;;;;;;7393349;19;20146;-78
2023/08/14 08:36:32;;;;;;;7.90;3.10;;;29.60;99.90;;;;;;7391312;19;20143;-77
2023/08/14 08:38:58;;;;;;;2.53;2.28;;;29.80;99.90;;;;;;7390319;19;20143;-75
2023/08/14 08:41:31;;;;;;;1.80;1.70;;;29.80;99.90;;;;;;7389648;19;20168;-78
2023/08/14 08:44:05;;;;;;;2.53;2.05;;;29.50;99.90;;;;;;7390508;19;20181;-77
2023/08/14 08:46:35;;;;;;;3.92;1.83;;;29.30;99.90;;;;;;7390887;19;20141;-79
2023/08/14 08:49:03;;;;;;;6.47;2.17;;;29.40;99.90;;;;;;7390306;19;20492;-80
2023/08/14 08:51:30;;;;;;;4.47;1.95;;;29.30;99.90;;;;;;7393037;19;20180;-80
2023/08/14 08:53:56;;;;;;;3.42;2.10;;;29.30;99.90;;;;;;7386680;19;20147;-80
2023/08/14 08:56:22;;;;;;;4.95;2.05;;;29.50;99.90;;;;;;7390112;19;20523;-78
2023/08/14 08:58:49;;;;;;;7.18;5.07;;;29.60;99.90;;;;;;7389523;19;20138;-79
2023/08/14 09:01:15;;;;;;;5.18;2.70;;;29.50;99.90;;;;;;7392465;19;20559;-77
2023/08/14 09:03:43;;;;;;;4.22;2.35;;;29.10;99.90;;;;;;7391703;19;20209;-77
2023/08/14 09:06:09;;;;;;;2.30;1.90;;;29.10;99.90;;;;;;7391514;19;20154;-79
2023/08/14 09:08:34;;;;;;;9.52;2.42;;;28.70;99.90;;;;;;7390025;19;20190;-75
2023/08/14 09:11:00;;;;;;;5.25;2.25;;;28.50;99.90;;;;;;7392055;19;20182;-78
2023/08/14 09:13:26;;;;;;;4.20;2.38;;;28.50;99.90;;;;;;7391365;19;20142;-79
2023/08/14 09:15:52;;;;;;;4.32;2.45;;;28.50;99.90;;;;;;7391240;19;20238;-77
2023/08/14 09:18:18;;;;;;;3.28;2.13;;;28.40;99.90;;;;;;7389176;19;20202;-76
2023/08/14 09:20:44;;;;;;;4.53;1.90;;;28.00;99.90;;;;;;7389536;19;20162;-79
2023/08/14 09:23:13;;;;;;;3.70;2.22;;;27.90;99.90;;;;;;7390923;19;20157;-78
2023/08/14 09:25:46;;;;;;;4.95;2.13;;;28.10;99.90;;;;;;7387325;19;20142;-79
2023/08/14 09:28:13;;;;;;;7.72;2.55;;;28.40;99.90;;;;;;7391284;19;20146;-79
2023/08/14 09:30:40;;;;;;;2.85;1.95;;;28.30;99.90;;;;;;7388921;19;20147;-78
2023/08/14 09:33:08;;;;;;;3.78;2.90;;;28.20;99.90;;;;;;7391798;19;20561;-77
2023/08/14 09:35:34;;;;;;;5.95;2.83;;;28.00;99.90;;;;;;7390302;19;20210;-78
2023/08/14 09:38:00;;;;;;;3.85;2.22;;;27.90;99.90;;;;;;7388920;19;20155;-81
2023/08/14 09:40:26;;;;;;;3.13;2.05;;;28.20;99.90;;;;;;7390948;19;20492;-78
2023/08/14 09:42:55;;;;;;;3.25;1.92;;;28.70;99.90;;;;;;7389009;19;20157;-79
2023/08/14 09:45:23;;;;;;;7.30;5.60;;;29.20;99.90;;;;;;7388506;19;20157;-75
2023/08/14 09:47:50;;;;;;;6.45;2.75;;;29.60;99.90;;;;;;7390412;19;20138;-78
2023/08/14 09:50:17;;;;;;;3.55;2.10;;;29.30;99.90;;;;;;7389187;19;20192;-76
2023/08/14 09:52:43;;;;;;;5.60;2.97;;;28.90;99.90;;;;;;7388514;19;20214;-76
2023/08/14 09:55:10;;;;;;;6.47;2.92;;;28.40;99.90;;;;;;7389109;19;20150;-78
2023/08/14 09:57:37;;;;;;;3.55;2.53;;;28.40;99.90;;;;;;7388783;19;20861;-78
2023/08/14 10:00:04;;;;;;;5.45;2.20;;;28.80;99.90;;;;;;7389954;19;20142;-78
2023/08/14 10:02:32;;;;;;;4.22;2.20;;;29.00;99.90;;;;;;7390825;19;20131;-78
2023/08/14 10:04:59;;;;;;;2.03;1.77;;;29.20;99.90;;;;;;7387258;19;20154;-77
2023/08/14 10:07:26;;;;;;;3.55;2.08;;;29.40;99.90;;;;;;7387270;19;20162;-78
2023/08/14 10:09:55;;;;;;;2.67;2.28;;;29.30;99.90;;;;;;7388897;19;20638;-78
2023/08/14 10:12:29;;;;;;;3.60;2.40;;;29.10;99.90;;;;;;7391232;19;20153;-77
2023/08/14 10:15:07;;;;;;;6.53;2.38;;;29.30;99.90;;;;;;7389241;19;20860;-77
2023/08/14 10:17:43;;;;;;;5.55;2.53;;;29.40;99.90;;;;;;7390673;19;20485;-79
2023/08/14 10:20:13;;;;;;;5.60;4.63;;;29.50;99.90;;;;;;7389029;19;20245;-78
2023/08/14 10:22:40;;;;;;;2.75;2.40;;;29.60;99.90;;;;;;7387814;19;20185;-79
2023/08/14 10:25:07;;;;;;;4.10;2.47;;;29.70;99.90;;;;;;7387704;19;20175;-76
2023/08/14 10:27:33;;;;;;;3.47;2.25;;;29.80;99.90;;;;;;7391615;19;20139;-77
2023/08/14 10:30:00;;;;;;;3.30;2.38;;;29.90;99.90;;;;;;7385760;19;20226;-78
2023/08/14 10:32:27;;;;;;;3.17;2.03;;;30.00;99.90;;;;;;7389066;19;20146;-77
2023/08/14 10:34:55;;;;;;;2.60;2.40;;;29.90;99.90;;;;;;7387979;19;20142;-78
2023/08/14 10:37:28;;;;;;;2.33;1.88;;;29.80;99.90;;;;;;7386625;19;20621;-78
2023/08/14 10:40:16;;;;;;;3.47;2.13;;;29.70;99.90;;;;;;7390231;19;20609;-79
2023/08/14 10:42:44;;;;;;;11.70;8.02;;;30.00;99.90;;;;;;7386249;19;20921;-77
2023/08/14 10:45:10;;;;;;;3.88;3.47;;;30.10;99.90;;;;;;7386371;19;20211;-78
2023/08/14 10:47:38;;;;;;;4.45;2.90;;;29.90;99.90;;;;;;7387734;19;20726;-80
2023/08/14 10:50:15;;;;;;;2.92;2.63;;;29.90;99.90;;;;;;7388612;19;20174;-78
2023/08/14 10:52:48;;;;;;;2.45;2.25;;;30.10;99.90;;;;;;7390018;19;20150;-77
2023/08/14 10:55:23;;;;;;;3.40;2.78;;;30.20;99.90;;;;;;7386611;19;20130;-77
2023/08/14 10:57:49;;;;;;;4.45;2.10;;;30.10;99.90;;;;;;7388001;19;20137;-77
2023/08/14 11:00:24;;;;;;;5.68;2.60;;;30.00;99.90;;;;;;7387130;19;20139;-79
2023/08/14 11:02:52;;;;;;;20.23;3.67;;;30.00;99.90;;;;;;7386608;19;20126;-78
2023/08/14 11:05:18;;;;;;;2.63;1.92;;;30.00;99.90;;;;;;7383283;19;20218;-79
2023/08/14 11:07:58;;;;;;;2.67;2.28;;;29.80;99.90;;;;;;7387207;19;20139;-78
2023/08/14 11:10:26;;;;;;;2.47;2.10;;;29.70;99.90;;;;;;7386469;19;20214;-78
2023/08/14 11:12:53;;;;;;;2.35;2.15;;;29.70;99.90;;;;;;7385220;19;20138;-77
2023/08/14 11:15:20;;;;;;;3.05;2.13;;;29.60;99.90;;;;;;7387899;19;20626;-77
2023/08/14 11:17:47;;;;;;;4.07;2.50;;;29.40;99.90;;;;;;7387233;19;20134;-78
2023/08/14 11:20:13;;;;;;;3.17;2.67;;;29.40;99.90;;;;;;7393089;19;20138;-78
2023/08/14 11:22:44;;;;;;;3.85;2.95;;;29.40;99.90;;;;;;7393457;19;20157;-75
2023/08/14 11:25:15;;;;;;;7.53;6.28;;;29.40;99.90;;;;;;7393082;19;20143;-76
2023/08/14 11:27:41;;;;;;;8.98;4.95;;;29.40;99.90;;;;;;7391685;19;20222;-77
2023/08/14 11:30:07;;;;;;;4.00;2.80;;;29.40;99.90;;;;;;7391268;19;20158;-76
2023/08/14 11:32:33;;;;;;;4.95;2.30;;;29.40;99.90;;;;;;7393602;19;20583;-76
2023/08/14 11:34:59;;;;;;;3.70;2.30;;;29.40;99.90;;;;;;7393938;19;20143;-76
2023/08/14 11:37:25;;;;;;;4.75;2.95;;;29.40;99.90;;;;;;7392945;19;20222;-75
2023/08/14 11:39:51;;;;;;;2.50;2.30;;;29.50;99.90;;;;;;7390130;19;20138;-77
2023/08/14 11:42:16;;;;;;;4.68;3.10;;;29.50;99.90;;;;;;7393267;19;20141;-77
2023/08/14 11:44:42;;;;;;;5.63;3.22;;;29.60;99.90;;;;;;7390221;19;20167;-78
2023/08/14 11:47:08;;;;;;;4.00;2.67;;;29.70;99.90;;;;;;7395071;19;20571;-77
2023/08/14 11:49:38;;;;;;;3.13;2.78;;;29.80;99.90;;;;;;7392813;19;20447;-78
2023/08/14 11:52:04;;;;;;;25.85;20.17;;;29.80;99.90;;;;;;7389997;19;20162;-79
2023/08/14 11:54:32;;;;;;;7.93;5.57;;;29.80;99.90;;;;;;7393150;19;20135;-77
2023/08/14 11:57:02;;;;;;;6.50;5.05;;;29.90;99.90;;;;;;7393318;19;20311;-79
2023/08/14 11:59:28;;;;;;;3.92;3.03;;;30.00;99.90;;;;;;7392263;19;20135;-76
2023/08/14 12:01:56;;;;;;;2.70;2.22;;;30.00;99.90;;;;;;7391498;19;20517;-77
2023/08/14 12:04:22;;;;;;;3.03;2.55;;;30.00;99.90;;;;;;7390996;19;20174;-77
2023/08/14 12:06:48;;;;;;;4.07;2.63;;;29.90;99.90;;;;;;7391156;19;20511;-78
2023/08/14 12:09:13;;;;;;;4.80;2.63;;;29.80;99.90;;;;;;7392949;19;20131;-77
2023/08/14 12:11:39;;;;;;;2.72;2.22;;;29.80;99.90;;;;;;7393017;19;20154;-79
2023/08/14 12:14:06;;;;;;;2.45;1.92;;;29.90;99.90;;;;;;7392048;19;20161;-77
2023/08/14 12:16:36;;;;;;;5.00;2.90;;;30.00;99.90;;;;;;7391656;19;21073;-77
2023/08/14 12:19:06;;;;;;;3.70;2.50;;;30.10;99.90;;;;;;7393281;19;20127;-77
2023/08/14 12:21:32;;;;;;;3.95;2.60;;;30.00;99.90;;;;;;7391560;19;20153;-76
2023/08/14 12:23:57;;;;;;;3.20;2.53;;;30.10;99.90;;;;;;7394245;19;20138;-77
2023/08/14 12:26:23;;;;;;;3.08;2.20;;;30.00;99.90;;;;;;7390342;19;20150;-77
2023/08/14 12:28:49;;;;;;;4.50;2.40;;;29.90;99.90;;;;;;7389659;19;20506;-77
2023/08/14 12:31:15;;;;;;;4.63;3.08;;;29.90;99.90;;;;;;7391513;19;20157;-75
2023/08/14 12:33:41;;;;;;;3.20;2.20;;;29.90;99.90;;;;;;7391255;19;20139;-77
2023/08/14 12:36:10;;;;;;;6.57;3.25;;;29.80;99.90;;;;;;7391827;19;20464;-78
2023/08/14 12:38:37;;;;;;;4.78;3.70;;;29.90;99.90;;;;;;7392579;19;20147;-78
2023/08/14 12:41:03;;;;;;;3.63;2.95;;;29.90;99.90;;;;;;7390501;19;20426;-78
2023/08/14 12:43:29;;;;;;;6.88;3.10;;;29.50;99.90;;;;;;7390702;19;20150;-79
2023/08/14 12:45:55;;;;;;;2.95;2.42;;;28.80;99.90;;;;;;7387637;19;20551;-78